createdAt,value
2022-12-24T00:01:22.025Z,93688.00
2022-12-24T00:03:49.477Z,93688.00
2022-12-24T00:06:23.515Z,93694.00
2022-12-24T00:08:53.172Z,93703.00
2022-12-24T00:11:22.082Z,93718.00
2022-12-24T00:13:51.897Z,93713.00
2022-12-24T00:16:18.936Z,93718.00
2022-12-24T00:18:47.098Z,93709.00
2022-12-24T00:21:19.663Z,93716.00
2022-12-24T00:23:46.628Z,93733.00
2022-12-24T00:26:14.452Z,93728.00
2022-12-24T00:28:41.740Z,93727.00
2022-12-24T00:31:11.981Z,93734.00
2022-12-24T00:33:44.102Z,93735.00
2022-12-24T00:36:11.444Z,93733.00
2022-12-24T00:38:41.603Z,93724.00
2022-12-24T00:41:25.519Z,93728.00
2022-12-24T00:44:10.116Z,93728.00
2022-12-24T00:46:41.508Z,93732.00
2022-12-24T00:49:09.239Z,93734.00
2022-12-24T00:51:41.522Z,93728.00
2022-12-24T00:54:08.520Z,93744.00
2022-12-24T00:56:35.549Z,93733.00
2022-12-24T00:59:09.501Z,93740.00
2022-12-24T01:01:41.058Z,93750.00
2022-12-24T01:04:29.089Z,93759.00
2022-12-24T01:06:58.335Z,93764.00
2022-12-24T01:09:25.214Z,93774.00
2022-12-24T01:11:52.115Z,93763.00
2022-12-24T01:14:23.741Z,93789.00
2022-12-24T01:16:50.715Z,93790.00
2022-12-24T01:19:17.680Z,93786.00
2022-12-24T01:21:44.590Z,93778.00
2022-12-24T01:24:17.141Z,93792.00
2022-12-24T01:26:45.272Z,93805.00
2022-12-24T01:29:12.316Z,93799.00
2022-12-24T01:31:39.452Z,93797.00
2022-12-24T01:34:08.649Z,93787.00
2022-12-24T01:36:38.114Z,93796.00
2022-12-24T01:39:05.563Z,93795.00
2022-12-24T01:41:52.008Z,93783.00
2022-12-24T01:44:36.067Z,93804.00
2022-12-24T01:47:15.022Z,93808.00
2022-12-24T01:49:59.971Z,93801.00
2022-12-24T01:52:32.186Z,93818.00
2022-12-24T01:55:04.562Z,93814.00
2022-12-24T01:57:44.578Z,93819.00
2022-12-24T02:00:18.060Z,93813.00
2022-12-24T02:02:48.552Z,93821.00
2022-12-24T02:05:17.379Z,93807.00
2022-12-24T02:07:44.946Z,93806.00
2022-12-24T02:10:13.368Z,93810.00
2022-12-24T02:12:45.007Z,93818.00
2022-12-24T02:15:19.673Z,93816.00
2022-12-24T02:18:37.978Z,93820.00
2022-12-24T02:21:46.855Z,93831.00
2022-12-24T02:25:07.266Z,93833.00
2022-12-24T02:27:58.292Z,93829.00
2022-12-24T02:30:39.267Z,93826.00
2022-12-24T02:33:25.768Z,93831.00
2022-12-24T02:36:23.872Z,93841.00
2022-12-24T02:39:04.435Z,93838.00
2022-12-24T02:41:57.688Z,93833.00
2022-12-24T02:44:32.180Z,93832.00
2022-12-24T02:47:01.128Z,93834.00
2022-12-24T02:49:28.177Z,93839.00
2022-12-24T02:51:55.150Z,93843.00
2022-12-24T02:54:22.814Z,93858.00
2022-12-24T02:57:06.866Z,93859.00
2022-12-24T03:00:05.113Z,93872.00
2022-12-24T03:03:07.750Z,93856.00
2022-12-24T03:05:46.156Z,93854.00
2022-12-24T03:08:44.448Z,93866.00
2022-12-24T03:11:15.714Z,93848.00
2022-12-24T03:13:49.397Z,93854.00
2022-12-24T03:16:24.211Z,93856.00
2022-12-24T03:18:53.933Z,93864.00
2022-12-24T03:21:38.752Z,93871.00
2022-12-24T03:24:08.590Z,93886.00
2022-12-24T03:26:36.168Z,93890.00
2022-12-24T03:29:09.786Z,93884.00
2022-12-24T03:31:43.042Z,93880.00
2022-12-24T03:34:11.342Z,93895.00
2022-12-24T03:36:40.471Z,93890.00
2022-12-24T03:39:09.681Z,93894.00
2022-12-24T03:41:37.969Z,93889.00
2022-12-24T03:44:07.838Z,93888.00
2022-12-24T03:46:34.772Z,93904.00
2022-12-24T03:49:01.742Z,93898.00
2022-12-24T03:51:33.279Z,93909.00
2022-12-24T03:54:00.479Z,93916.00
2022-12-24T03:56:30.715Z,93927.00
2022-12-24T03:59:00.132Z,93925.00
2022-12-24T04:01:27.164Z,93920.00
2022-12-24T04:03:54.198Z,93909.00
2022-12-24T04:06:21.211Z,93915.00
2022-12-24T04:08:48.199Z,93911.00
2022-12-24T04:11:17.035Z,93914.00
2022-12-24T04:13:46.538Z,93895.00
2022-12-24T04:16:18.870Z,93898.00
2022-12-24T04:18:50.787Z,93906.00
2022-12-24T04:21:19.957Z,93908.00
2022-12-24T04:23:51.766Z,93915.00
2022-12-24T04:26:18.773Z,93916.00
2022-12-24T04:28:45.739Z,93925.00
2022-12-24T04:31:18.185Z,93921.00
2022-12-24T04:33:46.371Z,93920.00
2022-12-24T04:36:17.964Z,93931.00
2022-12-24T04:38:48.310Z,93933.00
2022-12-24T04:41:23.811Z,93913.00
2022-12-24T04:43:53.892Z,93932.00
2022-12-24T04:46:24.899Z,93927.00
2022-12-24T04:48:56.205Z,93935.00
2022-12-24T04:51:24.675Z,93943.00
2022-12-24T04:53:52.480Z,93951.00
2022-12-24T04:56:29.626Z,93959.00
2022-12-24T04:58:57.559Z,93958.00
2022-12-24T05:01:28.592Z,93951.00
2022-12-24T05:03:55.991Z,93945.00
2022-12-24T05:06:30.756Z,93956.00
2022-12-24T05:08:58.907Z,93954.00
2022-12-24T05:11:26.057Z,93954.00
2022-12-24T05:13:53.102Z,93951.00
2022-12-24T05:16:23.326Z,93962.00
2022-12-24T05:18:51.312Z,93957.00
2022-12-24T05:21:21.867Z,93959.00
2022-12-24T05:24:07.952Z,93948.00
2022-12-24T05:26:54.023Z,93959.00
2022-12-24T05:29:21.647Z,93954.00
2022-12-24T05:31:48.779Z,93962.00
2022-12-24T05:34:17.225Z,93955.00
2022-12-24T05:36:45.427Z,93958.00
2022-12-24T05:39:21.365Z,93965.00
2022-12-24T05:41:48.370Z,93963.00
2022-12-24T05:44:20.561Z,93963.00
2022-12-24T05:46:50.393Z,93963.00
2022-12-24T05:49:19.502Z,93961.00
2022-12-24T05:51:46.493Z,93981.00
2022-12-24T05:54:13.544Z,93974.00
2022-12-24T05:56:40.751Z,93980.00
2022-12-24T05:59:10.039Z,93985.00
2022-12-24T06:01:39.298Z,93986.00
2022-12-24T06:04:09.338Z,93988.00
2022-12-24T06:06:38.749Z,93997.00
2022-12-24T06:09:07.926Z,93999.00
2022-12-24T06:11:39.431Z,93991.00
2022-12-24T06:14:06.400Z,93988.00
2022-12-24T06:16:33.393Z,93989.00
2022-12-24T06:19:00.394Z,93987.00
2022-12-24T06:21:27.280Z,93992.00
2022-12-24T06:23:56.333Z,93996.00
2022-12-24T06:26:26.046Z,93991.00
2022-12-24T06:28:55.405Z,94002.00
2022-12-24T06:31:23.719Z,93990.00
2022-12-24T06:33:51.945Z,93993.00
2022-12-24T06:36:24.445Z,93988.00
2022-12-24T06:38:53.439Z,93997.00
2022-12-24T06:41:23.674Z,94009.00
2022-12-24T06:43:52.990Z,94010.00
2022-12-24T06:46:21.117Z,94010.00
2022-12-24T06:48:48.374Z,94002.00
2022-12-24T06:51:19.519Z,93988.00
2022-12-24T06:53:47.121Z,93996.00
2022-12-24T06:56:15.058Z,93988.00
2022-12-24T06:58:45.123Z,93981.00
2022-12-24T07:01:18.003Z,93998.00
2022-12-24T07:03:46.049Z,93988.00
2022-12-24T07:06:23.976Z,93977.00
2022-12-24T07:08:50.962Z,93985.00
2022-12-24T07:11:20.502Z,93988.00
2022-12-24T07:13:47.881Z,94000.00
2022-12-24T07:16:15.610Z,94005.00
2022-12-24T07:18:44.731Z,94002.00
2022-12-24T07:21:11.788Z,94008.00
2022-12-24T07:23:38.781Z,94019.00
2022-12-24T07:26:08.736Z,94021.00
2022-12-24T07:28:37.939Z,94017.00
2022-12-24T07:31:05.038Z,94036.00
2022-12-24T07:33:34.293Z,94046.00
2022-12-24T07:36:07.995Z,94034.00
2022-12-24T07:38:35.478Z,94033.00
2022-12-24T07:41:04.868Z,94035.00
2022-12-24T07:43:33.841Z,94047.00
2022-12-24T07:46:04.096Z,94046.00
2022-12-24T07:48:32.948Z,94053.00
2022-12-24T07:51:02.381Z,94041.00
2022-12-24T07:53:32.279Z,94045.00
2022-12-24T07:55:59.414Z,94039.00
2022-12-24T07:58:29.668Z,94052.00
2022-12-24T08:01:00.903Z,94052.00
2022-12-24T08:03:28.626Z,94067.00
2022-12-24T08:05:55.698Z,94064.00
2022-12-24T08:08:22.761Z,94065.00
2022-12-24T08:10:49.816Z,94071.00
2022-12-24T08:13:17.300Z,94074.00
2022-12-24T08:15:45.785Z,94061.00
2022-12-24T08:18:12.867Z,94075.00
2022-12-24T08:20:42.587Z,94090.00
2022-12-24T08:23:14.618Z,94100.00
2022-12-24T08:25:47.339Z,94098.00
2022-12-24T08:28:18.732Z,94085.00
2022-12-24T08:30:48.766Z,94096.00
2022-12-24T08:33:18.373Z,94100.00
2022-12-24T08:35:56.168Z,94096.00
2022-12-24T08:38:23.729Z,94099.00
2022-12-24T08:40:53.581Z,94113.00
2022-12-24T08:43:21.680Z,94110.00
2022-12-24T08:45:54.185Z,94111.00
2022-12-24T08:48:24.319Z,94113.00
2022-12-24T08:50:53.350Z,94116.00
2022-12-24T08:53:20.284Z,94129.00
2022-12-24T08:55:55.666Z,94128.00
2022-12-24T08:58:23.012Z,94128.00
2022-12-24T09:00:50.047Z,94131.00
2022-12-24T09:03:20.683Z,94119.00
2022-12-24T09:05:53.583Z,94132.00
2022-12-24T09:08:25.978Z,94106.00
2022-12-24T09:10:52.914Z,94113.00
2022-12-24T09:13:19.939Z,94105.00
2022-12-24T09:15:54.925Z,94108.00
2022-12-24T09:18:24.287Z,94128.00
2022-12-24T09:20:56.891Z,94132.00
2022-12-24T09:23:26.570Z,94140.00
2022-12-24T09:25:53.795Z,94156.00
2022-12-24T09:28:21.352Z,94153.00
2022-12-24T09:31:03.607Z,94160.00
2022-12-24T09:33:36.293Z,94152.00
2022-12-24T09:36:04.311Z,94152.00
2022-12-24T09:38:31.729Z,94144.00
2022-12-24T09:41:08.718Z,94153.00
2022-12-24T09:43:37.363Z,94156.00
2022-12-24T09:46:21.470Z,94163.00
2022-12-24T09:48:55.314Z,94152.00
2022-12-24T09:51:44.407Z,94140.00
2022-12-24T09:54:19.003Z,94141.00
2022-12-24T09:56:48.528Z,94135.00
2022-12-24T09:59:23.620Z,94126.00
2022-12-24T10:01:54.213Z,94140.00
2022-12-24T10:04:30.938Z,94148.00
2022-12-24T10:07:25.905Z,94154.00
2022-12-24T10:10:40.531Z,94161.00
2022-12-24T10:13:31.265Z,94178.00
2022-12-24T10:16:15.190Z,94181.00
2022-12-24T10:19:19.306Z,94191.00
2022-12-24T10:22:31.431Z,94189.00
2022-12-24T10:25:09.839Z,94181.00
2022-12-24T10:27:42.331Z,94171.00
2022-12-24T10:30:23.174Z,94147.00
2022-12-24T10:32:53.542Z,94166.00
2022-12-24T10:35:32.139Z,94156.00
2022-12-24T10:38:01.200Z,94150.00
2022-12-24T10:40:40.733Z,94161.00
2022-12-24T10:43:21.422Z,94149.00
2022-12-24T10:46:02.875Z,94145.00
2022-12-24T10:48:48.466Z,94152.00
2022-12-24T10:51:47.403Z,94150.00
2022-12-24T10:54:27.111Z,94154.00
2022-12-24T10:57:02.537Z,94153.00
2022-12-24T10:59:39.707Z,94151.00
2022-12-24T11:02:28.284Z,94158.00
2022-12-24T11:04:55.754Z,94168.00
2022-12-24T11:07:24.170Z,94162.00
2022-12-24T11:10:06.809Z,94160.00
2022-12-24T11:13:05.814Z,94156.00
2022-12-24T11:15:35.182Z,94171.00
2022-12-24T11:18:15.114Z,94170.00
2022-12-24T11:20:51.688Z,94164.00
2022-12-24T11:23:19.145Z,94166.00
2022-12-24T11:25:53.347Z,94170.00
2022-12-24T11:28:33.540Z,94156.00
2022-12-24T11:31:07.041Z,94166.00
2022-12-24T11:33:50.974Z,94151.00
2022-12-24T11:36:27.561Z,94159.00
2022-12-24T11:38:57.462Z,94156.00
2022-12-24T11:41:35.833Z,94142.00
2022-12-24T11:44:07.872Z,94145.00
2022-12-24T11:46:38.965Z,94138.00
2022-12-24T11:49:29.665Z,94147.00
2022-12-24T11:52:11.970Z,94145.00
2022-12-24T11:55:16.297Z,94154.00
2022-12-24T11:58:20.101Z,94140.00
2022-12-24T12:00:51.582Z,94147.00
2022-12-24T12:03:43.845Z,94148.00
2022-12-24T12:06:40.921Z,94138.00
2022-12-24T12:09:22.433Z,94138.00
2022-12-24T12:11:58.699Z,94139.00
2022-12-24T12:14:39.772Z,94144.00
2022-12-24T12:17:31.418Z,94152.00
2022-12-24T12:20:06.216Z,94158.00
